Time;durP1;ratioP1;P1;durP2;ratioP2;P2;SDS_P1;SDS_P2;PMS_P1;PMS_P2;Temp;Humidity;BMP_temperature;BMP_pressure;BME280_temperature;BME280_humidity;BME280_pressure;Samples;Min_cycle;Max_cycle;Signal;HPM_P1;HPM_P2
2022/03/14 00:00:25;;;;;;;4.35;2.15;;;;;;;9.33;91.88;98683.38;5004755;28;20034;-67
2022/03/14 00:02:51;;;;;;;7.75;3.35;;;;;;;9.27;92.57;98692.19;5004733;28;20023;-67
2022/03/14 00:05:17;;;;;;;5.50;2.67;;;;;;;9.23;92.52;98694.88;5004694;28;20089;-67
2022/03/14 00:07:44;;;;;;;3.72;2.45;;;;;;;9.24;93.12;98688.75;5004519;28;20026;-67
2022/03/14 00:10:13;;;;;;;5.25;2.90;;;;;;;9.13;93.76;98688.91;5004152;28;20033;-67
2022/03/14 00:12:39;;;;;;;6.22;2.85;;;;;;;9.12;94.69;98681.03;5004352;28;20034;-67
2022/03/14 00:15:08;;;;;;;5.13;2.88;;;;;;;9.05;94.55;98687.25;5004426;28;20084;-67
2022/03/14 00:17:34;;;;;;;6.00;2.97;;;;;;;8.98;95.24;98703.97;5004581;28;20026;-67
2022/03/14 00:20:07;;;;;;;5.40;2.80;;;;;;;9.00;95.22;98707.44;5004329;28;20089;-67
2022/03/14 00:22:33;;;;;;;5.80;2.47;;;;;;;8.90;94.85;98716.31;5004452;28;20097;-67
2022/03/14 00:24:58;;;;;;;6.50;2.80;;;;;;;8.82;95.54;98712.91;5004443;28;20032;-67
2022/03/14 00:27:24;;;;;;;3.65;2.17;;;;;;;8.76;95.53;98721.69;5004322;28;20046;-67
2022/03/14 00:29:49;;;;;;;3.38;2.03;;;;;;;8.74;95.62;98732.22;5004213;28;20333;-67
2022/03/14 00:32:15;;;;;;;4.07;1.95;;;;;;;8.74;96.35;98740.09;5004373;28;20025;-67
2022/03/14 00:34:41;;;;;;;3.00;1.70;;;;;;;8.70;96.88;98740.13;4987069;28;20187;-67
2022/03/14 00:37:06;;;;;;;2.53;1.42;;;;;;;8.60;96.91;98747.25;5004300;28;20065;-67
2022/03/14 00:39:32;;;;;;;4.45;1.38;;;;;;;8.56;96.21;98755.16;5004147;28;20132;-67
2022/03/14 00:41:58;;;;;;;5.20;2.00;;;;;;;8.52;96.81;98762.16;5004547;28;20072;-67
2022/03/14 00:44:23;;;;;;;2.50;1.77;;;;;;;8.46;97.08;98764.88;5004533;28;20030;-67
2022/03/14 00:46:50;;;;;;;3.97;1.65;;;;;;;8.52;97.29;98759.53;5004163;28;20076;-67
2022/03/14 00:49:15;;;;;;;2.45;1.45;;;;;;;8.53;96.69;98761.31;5004216;28;20049;-67
2022/03/14 00:51:41;;;;;;;2.83;1.75;;;;;;;8.58;96.22;98764.75;5004341;28;20073;-67
2022/03/14 00:54:07;;;;;;;2.38;1.33;;;;;;;8.49;96.81;98761.34;5004205;28;20022;-67
2022/03/14 00:56:32;;;;;;;2.03;1.27;;;;;;;8.53;96.81;98768.28;5004426;28;20169;-67
2022/03/14 00:59:01;;;;;;;3.45;1.80;;;;;;;8.46;97.65;98769.25;5004155;28;20195;-67
2022/03/14 01:01:27;;;;;;;4.43;1.58;;;;;;;8.35;97.68;98777.19;5004103;28;20029;-67
2022/03/14 01:03:54;;;;;;;2.90;1.60;;;;;;;8.60;96.52;98776.09;5003944;28;20026;-67
2022/03/14 01:06:20;;;;;;;1.77;1.23;;;;;;;8.45;96.64;98784.09;5003888;28;20085;-67
2022/03/14 01:08:46;;;;;;;5.05;2.38;;;;;;;8.34;96.56;98775.47;5003839;28;20030;-67
2022/03/14 01:11:11;;;;;;;4.68;1.40;;;;;;;8.32;96.90;98779.84;5004009;28;20052;-67
2022/03/14 01:13:37;;;;;;;3.10;1.63;;;;;;;8.22;96.96;98780.81;5004025;28;20022;-67
2022/03/14 01:16:03;;;;;;;4.40;1.58;;;;;;;8.25;97.10;98779.91;5003871;28;20211;-67
2022/03/14 01:18:29;;;;;;;4.78;1.25;;;;;;;8.20;97.92;98782.50;5003934;28;20014;-67
2022/03/14 01:20:55;;;;;;;1.85;1.23;;;;;;;8.23;97.01;98785.16;5004172;28;20225;-67
2022/03/14 01:23:20;;;;;;;2.53;1.30;;;;;;;8.20;97.06;98779.91;5007580;28;20026;-67
2022/03/14 01:25:46;;;;;;;3.60;1.55;;;;;;;8.20;97.59;98787.75;5007562;28;20045;-67
2022/03/14 01:28:12;;;;;;;4.35;2.08;;;;;;;8.20;97.67;98793.00;5007650;28;20026;-67
2022/03/14 01:30:39;;;;;;;2.30;1.40;;;;;;;8.18;97.76;98794.78;5007428;28;20369;-67
2022/03/14 01:33:04;;;;;;;2.03;1.50;;;;;;;8.13;96.89;98788.69;5007338;28;20029;-67
2022/03/14 01:35:30;;;;;;;2.10;1.20;;;;;;;8.21;97.14;98794.78;5007376;28;20026;-67
2022/03/14 01:37:57;;;;;;;2.45;1.45;;;;;;;8.17;96.31;98800.88;5007394;28;20321;-67
2022/03/14 01:40:23;;;;;;;3.70;1.55;;;;;;;8.20;96.17;98803.50;5007304;28;20018;-67
2022/03/14 01:42:49;;;;;;;1.70;0.95;;;;;;;8.19;96.85;98806.13;5007475;28;20133;-67
2022/03/14 01:45:17;;;;;;;3.13;1.35;;;;;;;8.14;96.92;98811.41;5006926;28;20245;-67
2022/03/14 01:47:44;;;;;;;2.63;1.17;;;;;;;8.07;97.51;98807.09;5007080;28;20033;-67
2022/03/14 01:50:10;;;;;;;3.15;1.20;;;;;;;8.07;97.49;98812.31;5007016;28;20372;-67
2022/03/14 01:52:36;;;;;;;1.73;1.10;;;;;;;8.02;96.64;98814.13;5006841;28;20018;-67
2022/03/14 01:55:02;;;;;;;2.05;1.17;;;;;;;7.97;96.99;98820.25;5007039;28;20199;-67
2022/03/14 01:57:29;;;;;;;4.20;1.58;;;;;;;8.04;97.24;98822.84;5007200;28;20022;-67
2022/03/14 01:59:55;;;;;;;2.05;1.25;;;;;;;8.05;96.98;98829.84;5006917;28;20026;-67
2022/03/14 02:02:21;;;;;;;4.05;1.42;;;;;;;8.02;96.71;98836.84;5007114;28;20352;-67
2022/03/14 02:04:47;;;;;;;2.72;1.40;;;;;;;8.04;96.78;98833.31;5006770;28;20024;-67
2022/03/14 02:07:12;;;;;;;1.00;0.75;;;;;;;8.14;96.70;98840.22;5006726;28;20029;-67
2022/03/14 02:09:38;;;;;;;3.13;1.27;;;;;;;8.03;96.31;98846.44;5006761;28;20019;-67
2022/03/14 02:12:03;;;;;;;2.08;1.23;;;;;;;7.91;97.13;98852.63;5006341;28;20026;-67
2022/03/14 02:14:30;;;;;;;2.15;1.25;;;;;;;7.90;97.17;98855.25;5006514;28;20360;-67
2022/03/14 02:16:55;;;;;;;2.63;1.25;;;;;;;7.95;97.45;98856.09;5006569;28;20037;-67
2022/03/14 02:19:21;;;;;;;5.05;1.50;;;;;;;8.01;96.57;98859.53;5006549;28;20030;-67
2022/03/14 02:21:46;;;;;;;1.30;1.10;;;;;;;8.05;97.12;98860.41;5006620;28;20028;-67
2022/03/14 02:24:12;;;;;;;4.75;1.23;;;;;;;8.02;96.98;98863.94;5006483;28;20045;-67
2022/03/14 02:26:43;;;;;;;2.70;1.35;;;;;;;7.99;96.90;98866.56;5006441;28;20030;-67
2022/03/14 02:29:09;;;;;;;3.55;1.25;;;;;;;8.06;97.45;98865.66;5006655;28;20222;-67
2022/03/14 02:31:38;;;;;;;2.33;1.20;;;;;;;8.04;97.00;98872.63;5006118;28;20026;-67
2022/03/14 02:34:05;;;;;;;2.55;1.40;;;;;;;8.04;97.52;98870.00;5005893;28;20018;-67
2022/03/14 02:36:30;;;;;;;3.88;1.85;;;;;;;8.07;97.40;98875.25;5006251;28;20019;-67
2022/03/14 02:38:56;;;;;;;5.13;1.65;;;;;;;7.96;97.70;98882.31;5006039;28;20025;-67
2022/03/14 02:41:25;;;;;;;1.73;1.30;;;;;;;8.06;96.64;98878.75;5006134;28;20097;-67
2022/03/14 02:43:51;;;;;;;3.05;1.40;;;;;;;8.07;96.61;98885.72;5006003;28;20030;-67
2022/03/14 02:46:17;;;;;;;3.65;1.80;;;;;;;7.97;97.62;98893.63;5006075;28;20033;-67
2022/03/14 02:48:43;;;;;;;2.63;1.67;;;;;;;7.90;97.73;98898.06;5005976;28;20213;-67
2022/03/14 02:51:08;;;;;;;3.25;2.10;;;;;;;7.93;97.04;98905.91;5006195;28;20022;-67
2022/03/14 02:53:34;;;;;;;7.30;1.65;;;;;;;7.91;97.42;98910.28;5006002;28;20053;-67
2022/03/14 02:55:59;;;;;;;2.03;1.48;;;;;;;7.98;97.49;98919.84;5005940;28;20211;-67
2022/03/14 02:58:29;;;;;;;3.38;2.45;;;;;;;7.92;97.19;98924.25;5005762;28;20018;-67
2022/03/14 03:00:55;;;;;;;4.22;2.45;;;;;;;7.86;97.21;98917.31;5005808;28;20022;-67
2022/03/14 03:03:21;;;;;;;4.47;2.30;;;;;;;7.93;97.27;98929.50;5005739;28;20318;-67
2022/03/14 03:05:46;;;;;;;5.15;2.33;;;;;;;7.85;97.25;98919.94;5005553;28;20025;-67
2022/03/14 03:08:12;;;;;;;3.28;1.67;;;;;;;7.85;96.89;98931.25;5005500;28;20014;-67
2022/03/14 03:10:38;;;;;;;4.05;1.95;;;;;;;7.82;96.92;98928.66;5005474;28;20029;-67
2022/03/14 03:13:04;;;;;;;4.35;2.13;;;;;;;7.75;97.37;98945.28;5005576;28;20018;-67
2022/03/14 03:15:30;;;;;;;5.82;2.05;;;;;;;7.82;97.57;98951.38;5005298;28;20046;-67
2022/03/14 03:17:55;;;;;;;4.22;1.92;;;;;;;7.82;97.22;98956.63;5005501;28;20025;-67
2022/03/14 03:20:22;;;;;;;2.35;1.60;;;;;;;7.78;97.28;98976.72;5005415;28;20026;-67
2022/03/14 03:22:48;;;;;;;3.55;1.52;;;;;;;7.78;97.78;98976.72;5005372;28;20026;-67
2022/03/14 03:25:14;;;;;;;7.28;1.98;;;;;;;7.70;97.31;98988.97;5005298;28;20345;-67
2022/03/14 03:27:39;;;;;;;3.65;1.67;;;;;;;7.73;97.73;98994.22;5005415;28;20022;-67
2022/03/14 03:30:05;;;;;;;3.92;1.55;;;;;;;7.76;97.58;98998.56;5005263;28;20098;-67
2022/03/14 03:32:31;;;;;;;2.97;1.77;;;;;;;7.75;98.39;98999.44;5005014;28;20248;-67
2022/03/14 03:34:56;;;;;;;2.50;1.50;;;;;;;7.74;97.94;99006.41;5005149;28;20030;-67
2022/03/14 03:37:22;;;;;;;6.45;2.63;;;;;;;7.78;97.13;99010.78;5005095;28;20018;-67
2022/03/14 03:39:47;;;;;;;6.00;2.47;;;;;;;7.84;96.97;99016.00;5005061;28;20034;-67
2022/03/14 03:42:13;;;;;;;7.13;3.08;;;;;;;7.77;96.50;99016.91;5005061;28;20026;-67
2022/03/14 03:44:38;;;;;;;11.73;3.45;;;;;;;7.75;96.42;99023.88;5004533;28;20026;-67
2022/03/14 03:47:04;;;;;;;12.63;2.50;;;;;;;7.65;96.96;99030.00;5004931;28;20253;-67
2022/03/14 03:49:31;;;;;;;4.65;1.92;;;;;;;7.62;96.61;99037.88;5004952;28;20049;-67
2022/03/14 03:51:56;;;;;;;3.35;1.65;;;;;;;7.69;96.40;99047.47;5005016;28;20053;-67
2022/03/14 03:54:21;;;;;;;8.27;2.42;;;;;;;7.72;95.86;99051.84;5004848;28;20022;-67
2022/03/14 03:56:48;;;;;;;5.70;2.03;;;;;;;7.65;95.53;99053.59;5005006;28;20026;-67
2022/03/14 03:59:14;;;;;;;2.55;1.63;;;;;;;7.57;95.60;99055.38;5005035;28;20076;-67
2022/03/14 04:01:39;;;;;;;4.90;1.92;;;;;;;7.66;95.07;99059.72;5004556;28;20026;-67
2022/03/14 04:04:05;;;;;;;5.05;1.92;;;;;;;7.53;95.56;99069.31;5004724;28;20401;-67
2022/03/14 04:06:30;;;;;;;9.18;2.30;;;;;;;7.52;95.16;99087.66;5004877;28;20022;-67
2022/03/14 04:09:00;;;;;;;9.13;2.50;;;;;;;7.51;95.85;99092.03;5004583;28;20343;-67
2022/03/14 04:11:26;;;;;;;7.80;2.20;;;;;;;7.59;95.28;99085.03;5004607;28;20270;-67
2022/03/14 04:13:53;;;;;;;10.60;2.05;;;;;;;7.59;95.81;99087.66;5004402;28;20026;-67
2022/03/14 04:16:19;;;;;;;5.70;2.10;;;;;;;7.57;96.23;99092.03;5004856;28;20329;-67
2022/03/14 04:18:45;;;;;;;10.43;2.60;;;;;;;7.54;95.91;99081.56;5004484;28;20014;-67
2022/03/14 04:21:12;;;;;;;8.00;1.90;;;;;;;7.58;95.67;99092.88;5004537;28;20221;-67
2022/03/14 04:23:37;;;;;;;14.80;2.55;;;;;;;7.56;96.10;99087.66;5004271;28;20026;-67
2022/03/14 04:26:03;;;;;;;9.30;2.30;;;;;;;7.61;95.75;99093.78;5004430;28;20064;-67
2022/03/14 04:28:28;;;;;;;7.85;2.53;;;;;;;7.60;95.56;99102.50;5002757;28;20014;-67
2022/03/14 04:30:54;;;;;;;5.95;2.42;;;;;;;7.58;95.36;99101.63;5003479;28;20333;-67
2022/03/14 04:33:20;;;;;;;9.23;2.20;;;;;;;7.57;95.29;99096.38;5003703;28;20080;-67
2022/03/14 04:35:45;;;;;;;5.43;2.17;;;;;;;7.55;95.55;99098.13;5003468;28;20321;-67
2022/03/14 04:38:11;;;;;;;5.53;2.00;;;;;;;7.48;96.57;99099.00;5003634;28;20061;-67
2022/03/14 04:40:37;;;;;;;8.32;2.08;;;;;;;7.48;96.07;99110.38;5003218;28;20061;-67
2022/03/14 04:43:08;;;;;;;4.28;1.88;;;;;;;7.43;95.96;99109.47;5002785;28;20022;-67
2022/03/14 04:45:36;;;;;;;5.87;2.07;;;;;;;7.49;96.08;99125.19;5003621;28;20087;-67
2022/03/14 04:48:03;;;;;;;6.88;1.88;;;;;;;7.48;96.12;99122.56;5003519;28;20027;-67
2022/03/14 04:50:29;;;;;;;4.00;1.30;;;;;;;7.43;95.94;99119.09;5003281;28;20018;-67
2022/03/14 04:52:54;;;;;;;4.95;1.60;;;;;;;7.42;96.20;99123.44;5002908;28;20033;-67
2022/03/14 04:55:20;;;;;;;3.75;1.48;;;;;;;7.44;95.83;99116.44;5002871;28;20090;-67
2022/03/14 04:57:46;;;;;;;2.50;1.45;;;;;;;7.41;95.80;99123.44;5006462;28;20026;-67
2022/03/14 05:00:12;;;;;;;4.70;1.58;;;;;;;7.39;96.50;99133.91;5006734;28;20329;-67
2022/03/14 05:02:37;;;;;;;4.35;1.63;;;;;;;7.30;96.77;99123.44;5006928;28;20022;-67
2022/03/14 05:05:03;;;;;;;9.60;2.50;;;;;;;7.28;96.79;99127.78;5007524;28;20384;-67
2022/03/14 05:07:29;;;;;;;5.57;2.00;;;;;;;7.32;96.81;99137.41;5007518;28;20279;-67
2022/03/14 05:09:54;;;;;;;7.50;1.70;;;;;;;7.40;96.67;99135.66;5007862;28;20125;-67
2022/03/14 05:12:19;;;;;;;6.05;1.80;;;;;;;7.33;97.10;99133.03;5007720;28;20018;-67
2022/03/14 05:14:45;;;;;;;5.45;1.98;;;;;;;7.38;96.97;99136.53;5007604;28;20042;-67
2022/03/14 05:17:10;;;;;;;9.52;1.85;;;;;;;7.38;96.62;99137.41;5007715;28;20060;-67
2022/03/14 05:19:36;;;;;;;7.70;2.08;;;;;;;7.45;96.45;99140.91;5007752;28;20157;-67
2022/03/14 05:22:02;;;;;;;3.13;1.70;;;;;;;7.39;96.33;99140.88;5007654;28;20262;-67
2022/03/14 05:24:28;;;;;;;7.28;1.70;;;;;;;7.41;95.96;99150.53;5007643;28;20022;-67
2022/03/14 05:26:54;;;;;;;5.22;2.20;;;;;;;7.43;95.80;99151.38;5007552;28;20033;-67
2022/03/14 05:29:20;;;;;;;2.47;1.50;;;;;;;7.32;96.11;99153.13;5007527;28;20030;-67
2022/03/14 05:31:46;;;;;;;5.18;2.10;;;;;;;7.37;96.04;99156.59;5007417;28;20022;-67
2022/03/14 05:34:11;;;;;;;4.57;1.70;;;;;;;7.32;96.45;99162.72;5007484;28;20037;-67
2022/03/14 05:36:37;;;;;;;2.67;1.20;;;;;;;7.27;96.30;99165.31;5007443;28;20049;-67
2022/03/14 05:39:04;;;;;;;4.15;1.60;;;;;;;7.21;97.03;99167.91;5007352;28;20025;-67
2022/03/14 05:41:29;;;;;;;5.05;1.92;;;;;;;7.20;97.20;99167.91;5007291;28;20221;-67
2022/03/14 05:43:55;;;;;;;4.05;1.35;;;;;;;7.08;97.27;99179.22;5007319;28;20027;-67
2022/03/14 05:46:20;;;;;;;11.02;2.13;;;;;;;7.17;97.14;99183.59;5007212;28;20089;-67
2022/03/14 05:48:46;;;;;;;10.02;2.20;;;;;;;7.31;96.57;99188.00;5007101;28;20026;-67
2022/03/14 05:51:11;;;;;;;3.33;1.23;;;;;;;7.31;97.25;99189.78;5007122;28;20060;-67
2022/03/14 05:53:37;;;;;;;4.88;1.63;;;;;;;7.31;96.74;99202.88;5007112;28;20026;-67
2022/03/14 05:56:02;;;;;;;7.75;1.35;;;;;;;7.24;96.51;99204.56;5007275;28;20022;-67
2022/03/14 05:58:28;;;;;;;7.50;1.48;;;;;;;7.23;97.18;99201.94;5007274;28;20014;-67
2022/03/14 06:00:53;;;;;;;2.42;1.00;;;;;;;7.30;96.42;99207.22;5006918;28;20026;-67
2022/03/14 06:03:22;;;;;;;8.57;1.27;;;;;;;7.37;96.31;99213.34;5006921;28;20164;-67
2022/03/14 06:05:49;;;;;;;14.15;1.92;;;;;;;7.34;96.51;99206.34;5006875;28;20274;-67
2022/03/14 06:08:15;;;;;;;7.30;1.40;;;;;;;7.34;96.93;99216.81;5005689;28;20253;-67
2022/03/14 06:10:43;;;;;;;7.60;1.70;;;;;;;7.36;96.40;99217.72;5006704;28;20026;-67
2022/03/14 06:13:08;;;;;;;5.50;1.35;;;;;;;7.42;96.01;99217.72;5006979;28;20026;-67
2022/03/14 06:15:34;;;;;;;13.43;1.48;;;;;;;7.41;96.22;99216.00;5006540;28;20219;-67
2022/03/14 06:17:59;;;;;;;5.63;1.45;;;;;;;7.42;95.99;99220.34;5006705;28;20030;-67
2022/03/14 06:20:25;;;;;;;4.85;1.30;;;;;;;7.44;95.79;99226.44;5006639;28;20026;-67
2022/03/14 06:22:50;;;;;;;7.00;1.42;;;;;;;7.45;95.30;99228.22;5006530;28;20314;-67
2022/03/14 06:25:19;;;;;;;9.52;1.75;;;;;;;7.44;95.35;99231.69;5006488;28;20034;-67
2022/03/14 06:27:45;;;;;;;7.57;1.67;;;;;;;7.49;95.27;99237.81;5006369;28;20022;-67
2022/03/14 06:30:11;;;;;;;4.05;1.33;;;;;;;7.44;95.42;99247.38;5006411;28;20032;-67
2022/03/14 06:32:42;;;;;;;3.55;1.50;;;;;;;7.50;94.98;99252.66;5006310;28;20307;-67
2022/03/14 06:35:13;;;;;;;7.03;1.55;;;;;;;7.49;95.30;99256.16;5006592;28;20097;-67
2022/03/14 06:37:39;;;;;;;4.70;1.40;;;;;;;7.44;94.61;99263.09;5006315;28;20022;-67
2022/03/14 06:40:05;;;;;;;7.97;1.30;;;;;;;7.54;94.39;99275.38;5006261;28;20195;-67
2022/03/14 06:42:31;;;;;;;4.43;1.27;;;;;;;7.50;94.47;99276.22;5006099;28;20027;-67
2022/03/14 06:45:01;;;;;;;3.85;1.58;;;;;;;7.55;94.31;99279.75;5006375;28;20217;-67
2022/03/14 06:47:26;;;;;;;3.55;1.58;;;;;;;7.57;93.98;99275.41;5006223;28;20263;-67
2022/03/14 06:49:52;;;;;;;5.93;1.45;;;;;;;7.64;94.35;99282.41;5006009;28;20030;-67
2022/03/14 06:52:17;;;;;;;3.53;1.98;;;;;;;7.72;94.54;99293.75;5005944;28;20251;-67
2022/03/14 06:54:43;;;;;;;14.70;2.00;;;;;;;7.66;94.24;99295.50;5006138;28;20032;-67
2022/03/14 06:57:09;;;;;;;5.95;1.38;;;;;;;7.66;95.07;99298.97;5005948;28;20380;-67
2022/03/14 06:59:35;;;;;;;6.82;1.92;;;;;;;7.73;94.07;99303.38;5005834;28;20425;-67
2022/03/14 07:02:01;;;;;;;5.10;1.48;;;;;;;7.83;93.68;99315.63;5005782;28;20030;-67
2022/03/14 07:04:27;;;;;;;3.85;1.77;;;;;;;7.86;93.19;99310.41;5005805;28;20222;-67
2022/03/14 07:06:53;;;;;;;7.30;2.03;;;;;;;7.87;93.67;99312.13;5005589;28;20022;-67
2022/03/14 07:09:18;;;;;;;5.45;2.03;;;;;;;7.92;92.53;99325.25;5005683;28;20026;-67
2022/03/14 07:11:44;;;;;;;3.08;1.55;;;;;;;7.97;92.77;99324.38;5005474;28;20049;-67
2022/03/14 07:14:09;;;;;;;9.63;2.15;;;;;;;8.11;92.32;99330.53;5005372;28;20052;-67
2022/03/14 07:16:35;;;;;;;6.85;1.70;;;;;;;8.34;91.58;99330.59;5005580;28;20089;-67
2022/03/14 07:19:00;;;;;;;8.30;2.08;;;;;;;8.42;89.88;99329.69;5005344;28;20023;-67
2022/03/14 07:21:28;;;;;;;5.03;1.35;;;;;;;8.26;90.21;99338.44;5005691;28;20041;-67
2022/03/14 07:23:57;;;;;;;4.50;1.27;;;;;;;8.31;90.32;99330.56;5005378;28;20022;-67
2022/03/14 07:26:23;;;;;;;7.15;1.80;;;;;;;8.38;89.84;99338.44;5005372;28;20026;-67
2022/03/14 07:28:49;;;;;;;6.93;1.30;;;;;;;8.30;91.13;99344.56;5005256;28;20026;-67
2022/03/14 07:31:17;;;;;;;6.03;1.08;;;;;;;8.27;90.32;99339.31;5005520;28;20045;-67
2022/03/14 07:33:43;;;;;;;6.00;1.10;;;;;;;8.38;89.55;99341.06;5005467;28;20022;-67
2022/03/14 07:36:09;;;;;;;13.25;1.60;;;;;;;8.36;89.51;99345.44;5005428;28;20069;-67
2022/03/14 07:38:34;;;;;;;3.65;1.25;;;;;;;8.44;90.12;99353.31;5005109;28;20022;-67
2022/03/14 07:41:00;;;;;;;6.93;1.30;;;;;;;8.57;90.11;99355.94;5005143;28;20097;-67
2022/03/14 07:43:25;;;;;;;3.55;1.35;;;;;;;8.67;89.25;99362.09;5005094;28;20029;-67
2022/03/14 07:45:51;;;;;;;2.75;1.50;;;;;;;8.77;89.58;99364.69;5005033;28;20045;-67
2022/03/14 07:48:16;;;;;;;2.15;1.20;;;;;;;8.88;89.44;99371.66;5004894;28;20018;-67
2022/03/14 07:50:42;;;;;;;4.20;0.95;;;;;;;8.90;86.99;99380.44;5004960;28;20093;-67
2022/03/14 07:53:07;;;;;;;3.45;1.27;;;;;;;8.68;87.49;99380.41;5004892;28;20026;-67
2022/03/14 07:55:32;;;;;;;6.40;1.10;;;;;;;8.68;89.24;99384.81;5004869;28;20195;-67
2022/03/14 07:57:58;;;;;;;8.23;1.23;;;;;;;8.57;89.11;99392.69;5004797;28;20066;-67
2022/03/14 08:00:24;;;;;;;2.03;0.93;;;;;;;8.56;89.13;99401.44;5004765;28;20069;-67
2022/03/14 08:02:50;;;;;;;1.75;1.10;;;;;;;8.53;88.21;99398.81;5004765;28;20030;-67
2022/03/14 08:05:16;;;;;;;8.82;1.60;;;;;;;8.48;89.24;99402.31;5004719;28;20029;-67
2022/03/14 08:07:46;;;;;;;6.63;1.23;;;;;;;8.51;88.63;99411.03;5004578;28;20023;-67
2022/03/14 08:10:14;;;;;;;6.72;1.10;;;;;;;8.47;89.09;99405.78;5004570;28;20276;-67
2022/03/14 08:12:50;;;;;;;3.33;1.42;;;;;;;8.71;89.17;99417.16;5004652;28;20026;-67
2022/03/14 08:15:24;;;;;;;3.30;1.40;;;;;;;8.70;88.92;99415.44;5004436;28;20054;-67
2022/03/14 08:17:51;;;;;;;8.02;1.40;;;;;;;9.09;88.13;99413.66;5004810;28;20021;-67
2022/03/14 08:20:17;;;;;;;8.50;1.23;;;;;;;9.27;87.93;99417.13;5004522;28;20233;-67
2022/03/14 08:22:43;;;;;;;10.30;1.20;;;;;;;9.47;86.42;99417.09;5004519;28;20058;-67
2022/03/14 08:25:09;;;;;;;3.88;1.05;;;;;;;9.51;86.30;99421.47;5004476;28;20022;-67
2022/03/14 08:27:35;;;;;;;14.25;1.63;;;;;;;9.49;84.76;99412.72;5004430;28;20026;-67
2022/03/14 08:30:00;;;;;;;4.32;1.20;;;;;;;9.68;84.97;99419.69;5004434;28;20049;-67
2022/03/14 08:32:26;;;;;;;2.67;1.20;;;;;;;9.90;84.86;99429.22;5009891;28;20199;-67
2022/03/14 08:34:53;;;;;;;2.58;1.48;;;;;;;10.16;84.35;99432.66;5011185;28;20022;-67
2022/03/14 08:37:19;;;;;;;7.10;2.30;;;;;;;10.60;82.81;99430.63;5010902;28;20029;-67
2022/03/14 08:39:48;;;;;;;4.00;1.60;;;;;;;11.16;80.48;99432.78;5010839;28;20018;-67
2022/03/14 08:42:14;;;;;;;9.15;1.52;;;;;;;10.82;80.39;99438.34;5010860;28;20018;-67
2022/03/14 08:44:40;;;;;;;4.30;1.27;;;;;;;10.79;81.59;99438.38;5010777;28;20084;-67
2022/03/14 08:47:06;;;;;;;4.45;1.60;;;;;;;10.84;82.49;99440.97;5010686;28;20026;-67
2022/03/14 08:49:31;;;;;;;5.88;1.48;;;;;;;11.02;79.63;99446.09;5010776;28;20025;-67
2022/03/14 08:51:56;;;;;;;3.90;1.42;;;;;;;11.07;78.93;99449.56;5010835;28;20050;-67
2022/03/14 08:54:22;;;;;;;9.88;1.33;;;;;;;11.43;79.33;99459.78;5010735;28;20022;-67
2022/03/14 08:56:47;;;;;;;5.40;1.55;;;;;;;11.97;77.87;99453.94;5010727;28;20022;-67
2022/03/14 08:59:13;;;;;;;7.57;1.60;;;;;;;12.45;76.98;99466.53;5010693;28;20205;-67
2022/03/14 09:01:39;;;;;;;3.70;1.77;;;;;;;12.74;76.56;99460.81;5010927;28;20043;-67
2022/03/14 09:04:05;;;;;;;8.43;2.78;;;;;;;13.52;72.50;99458.66;5010637;28;20206;-67
2022/03/14 09:06:32;;;;;;;8.93;1.55;;;;;;;14.02;70.02;99455.94;5010714;28;20026;-67
2022/03/14 09:08:58;;;;;;;6.90;2.30;;;;;;;14.37;68.52;99467.56;5010545;28;20037;-67
2022/03/14 09:11:24;;;;;;;4.07;1.73;;;;;;;15.00;68.62;99474.06;5010537;28;20022;-67
2022/03/14 09:13:49;;;;;;;4.35;1.42;;;;;;;14.77;68.22;99471.09;5010342;28;20113;-67
2022/03/14 09:16:15;;;;;;;7.97;1.75;;;;;;;13.90;69.30;99459.72;5010566;28;20026;-67
2022/03/14 09:18:40;;;;;;;3.67;1.60;;;;;;;14.39;69.66;99467.53;5010636;28;20018;-67
2022/03/14 09:21:06;;;;;;;10.00;1.92;;;;;;;14.36;69.18;99478.19;5010533;28;20021;-67
2022/03/14 09:23:31;;;;;;;5.80;1.50;;;;;;;14.13;68.64;99469.81;5010515;28;20379;-67
2022/03/14 09:25:57;;;;;;;4.25;1.33;;;;;;;13.82;71.25;99476.59;5010474;28;20022;-67
2022/03/14 09:28:23;;;;;;;4.55;1.55;;;;;;;13.63;70.67;99483.13;5010600;28;20018;-67
2022/03/14 09:30:48;;;;;;;5.30;1.42;;;;;;;13.45;72.79;99475.56;5010449;28;20217;-67
2022/03/14 09:33:14;;;;;;;1.60;1.02;;;;;;;13.55;71.90;99474.47;5010699;28;20018;-67
2022/03/14 09:35:40;;;;;;;5.05;1.50;;;;;;;13.53;72.40;99471.88;5010338;28;20025;-67
2022/03/14 09:38:05;;;;;;;5.65;1.75;;;;;;;13.17;70.77;99471.63;5010337;28;20022;-67
2022/03/14 09:40:31;;;;;;;7.28;1.40;;;;;;;13.41;72.50;99481.78;5010342;28;20018;-67
2022/03/14 09:43:01;;;;;;;4.28;1.35;;;;;;;13.45;71.88;99483.47;5008838;28;20340;-67
2022/03/14 09:45:31;;;;;;;1.83;1.08;;;;;;;12.96;72.82;99473.69;5007361;28;20034;-67
2022/03/14 09:47:59;;;;;;;4.80;1.15;;;;;;;13.22;73.77;99481.22;5007136;28;20022;-67
2022/03/14 09:50:35;;;;;;;3.58;1.30;;;;;;;13.50;72.49;99481.63;5007154;28;20030;-67
2022/03/14 09:53:19;;;;;;;3.08;1.27;;;;;;;13.54;72.27;99488.63;5007211;28;20104;-67
2022/03/14 09:55:47;;;;;;;6.20;1.48;;;;;;;13.13;73.30;99491.06;5007093;28;20030;-67
2022/03/14 09:58:15;;;;;;;3.88;1.25;;;;;;;13.17;71.80;99492.75;5007017;28;20022;-67
2022/03/14 10:00:42;;;;;;;7.43;1.33;;;;;;;12.99;73.53;99494.81;5006998;28;20053;-67
2022/03/14 10:03:08;;;;;;;2.17;1.25;;;;;;;12.63;73.14;99505.84;5006917;28;20030;-67
2022/03/14 10:05:34;;;;;;;4.85;1.33;;;;;;;12.54;74.83;99511.28;5006901;28;20221;-67
2022/03/14 10:08:00;;;;;;;8.25;1.35;;;;;;;12.21;74.57;99522.25;5006835;28;20081;-67
2022/03/14 10:10:25;;;;;;;4.57;1.85;;;;;;;12.24;74.50;99522.22;5006985;28;20096;-67
2022/03/14 10:12:55;;;;;;;5.35;1.33;;;;;;;12.25;75.23;99523.97;5006766;28;20033;-67
2022/03/14 10:15:22;;;;;;;5.47;2.38;;;;;;;12.48;74.75;99524.56;5006535;28;20238;-67
2022/03/14 10:17:48;;;;;;;6.78;1.40;;;;;;;12.57;74.74;99532.34;5006895;28;20029;-67
2022/03/14 10:20:18;;;;;;;7.47;1.48;;;;;;;12.59;74.92;99535.84;5006831;28;20022;-67
2022/03/14 10:22:44;;;;;;;8.35;1.85;;;;;;;12.79;76.12;99539.09;5006513;28;20053;-67
2022/03/14 10:25:13;;;;;;;5.25;1.23;;;;;;;12.76;74.45;99536.50;5006526;28;20033;-67
2022/03/14 10:27:40;;;;;;;7.97;1.50;;;;;;;12.92;73.63;99543.31;5006350;28;20026;-67
2022/03/14 10:30:20;;;;;;;5.03;1.40;;;;;;;13.13;72.94;99543.94;5006683;28;20325;-67
2022/03/14 10:32:47;;;;;;;11.55;1.88;;;;;;;13.03;73.54;99541.44;5006454;28;20022;-67
2022/03/14 10:35:16;;;;;;;6.60;1.83;;;;;;;13.43;71.50;99546.09;5006402;28;20026;-67
2022/03/14 10:37:58;;;;;;;6.70;1.52;;;;;;;13.53;72.09;99539.75;5006301;28;20029;-67
2022/03/14 10:40:38;;;;;;;12.35;1.50;;;;;;;13.47;72.28;99534.56;5006246;28;20089;-67
2022/03/14 10:43:07;;;;;;;3.90;1.42;;;;;;;13.94;71.75;99542.53;5006485;28;20302;-67
2022/03/14 10:45:33;;;;;;;8.18;2.58;;;;;;;14.16;69.18;99535.94;5006135;28;20022;-67
2022/03/14 10:48:01;;;;;;;6.45;2.40;;;;;;;14.57;68.97;99536.03;5006038;28;20194;-67
2022/03/14 10:50:45;;;;;;;5.85;2.40;;;;;;;14.06;68.78;99534.38;5006305;28;20329;-67
2022/03/14 10:53:21;;;;;;;4.32;2.60;;;;;;;13.77;68.90;99529.66;5006029;28;20033;-67
2022/03/14 10:55:57;;;;;;;10.38;3.67;;;;;;;13.56;69.91;99537.06;5005497;28;20030;-67
2022/03/14 10:58:28;;;;;;;8.50;3.42;;;;;;;14.10;69.71;99536.94;5005929;28;20340;-67
2022/03/14 11:00:56;;;;;;;4.40;2.60;;;;;;;13.69;68.47;99541.22;5005856;28;20018;-67
2022/03/14 11:03:34;;;;;;;8.52;1.95;;;;;;;14.38;68.61;99540.84;5005828;28;20341;-67
2022/03/14 11:06:04;;;;;;;10.27;2.10;;;;;;;15.06;66.79;99541.97;5005770;28;20032;-67
2022/03/14 11:08:36;;;;;;;3.80;1.90;;;;;;;15.67;64.77;99550.28;5005672;28;20041;-67
2022/03/14 11:11:13;;;;;;;7.78;2.08;;;;;;;16.06;63.64;99546.56;5005731;28;20022;-67
2022/03/14 11:13:46;;;;;;;4.95;1.58;;;;;;;16.44;59.40;99538.44;5005920;28;20096;-67
2022/03/14 11:16:18;;;;;;;3.85;1.23;;;;;;;16.36;59.07;99545.72;5005624;28;20046;-67
2022/03/14 11:18:44;;;;;;;3.67;1.05;;;;;;;16.24;58.90;99547.84;5005548;28;20034;-67
2022/03/14 11:21:16;;;;;;;3.28;1.05;;;;;;;15.67;60.08;99542.31;5005457;28;20030;-67
2022/03/14 11:23:46;;;;;;;6.20;1.80;;;;;;;15.03;59.08;99542.09;5005467;28;20030;-67
2022/03/14 11:26:13;;;;;;;7.43;2.00;;;;;;;14.85;63.60;99539.84;5005365;28;20088;-67
2022/03/14 11:28:41;;;;;;;6.35;1.67;;;;;;;14.86;64.15;99537.16;5005250;28;20026;-67
2022/03/14 11:31:07;;;;;;;2.55;1.13;;;;;;;15.67;62.27;99547.63;5005353;28;20088;-67
2022/03/14 11:33:37;;;;;;;4.28;1.38;;;;;;;15.93;61.02;99542.50;5005266;28;20085;-67
2022/03/14 11:36:05;;;;;;;4.97;1.42;;;;;;;15.64;61.40;99545.03;5005294;28;20053;-67